Time;durP1;ratioP1;P1;durP2;ratioP2;P2;SDS_P1;SDS_P2;PMS_P1;PMS_P2;Temp;Humidity;BMP_temperature;BMP_pressure;BME280_temperature;BME280_humidity;BME280_pressure;Samples;Min_cycle;Max_cycle;Signal;HPM_P1;HPM_P2
2023/10/27 00:02:25;;;;;;;3.03;2.22;;;20.00;68.30;;;;;;5112972;28;20043;-63
2023/10/27 00:04:50;;;;;;;2.83;2.05;;;20.00;68.30;;;;;;5102572;28;20086;-63
2023/10/27 00:07:16;;;;;;;3.38;1.90;;;20.00;68.20;;;;;;5093472;28;20089;-63
2023/10/27 00:09:41;;;;;;;2.22;1.80;;;20.00;68.20;;;;;;5094073;28;20487;-63
2023/10/27 00:12:07;;;;;;;3.33;2.13;;;20.00;68.30;;;;;;5092995;28;20407;-63
2023/10/27 00:14:33;;;;;;;2.92;2.10;;;20.00;68.20;;;;;;5093383;28;20039;-63
2023/10/27 00:16:59;;;;;;;3.47;2.20;;;20.00;68.20;;;;;;5092700;28;20052;-63
2023/10/27 00:19:25;;;;;;;4.55;2.20;;;20.00;68.20;;;;;;5092293;28;20073;-63
2023/10/27 00:21:50;;;;;;;2.53;2.00;;;20.00;68.30;;;;;;5093564;28;20055;-63
2023/10/27 00:24:16;;;;;;;3.33;1.88;;;20.00;68.20;;;;;;5092616;28;20051;-64
2023/10/27 00:26:41;;;;;;;3.67;2.40;;;20.00;68.20;;;;;;5093731;28;20050;-63
2023/10/27 00:29:07;;;;;;;3.75;1.90;;;19.90;68.20;;;;;;5093795;28;20131;-63
2023/10/27 00:31:32;;;;;;;2.63;1.92;;;19.90;68.10;;;;;;5091117;28;20062;-63
2023/10/27 00:33:58;;;;;;;3.17;2.15;;;19.90;68.10;;;;;;5093318;28;20070;-63
2023/10/27 00:36:24;;;;;;;2.60;1.83;;;19.90;68.10;;;;;;5091729;28;20074;-63
2023/10/27 00:38:50;;;;;;;3.47;2.03;;;19.90;68.10;;;;;;5092832;28;20047;-63
2023/10/27 00:41:16;;;;;;;2.83;2.13;;;19.90;68.10;;;;;;5108985;28;20047;-63
2023/10/27 00:43:42;;;;;;;2.70;1.98;;;19.90;68.00;;;;;;5113716;28;20035;-63
2023/10/27 00:46:08;;;;;;;2.47;1.98;;;19.90;68.00;;;;;;5111661;28;20043;-63
2023/10/27 00:48:33;;;;;;;2.95;2.10;;;19.90;68.00;;;;;;5112257;28;20055;-63
2023/10/27 00:51:00;;;;;;;3.13;1.90;;;19.90;68.00;;;;;;5112535;28;20479;-63
2023/10/27 00:53:26;;;;;;;2.78;1.90;;;19.90;67.90;;;;;;5112714;28;20051;-63
2023/10/27 00:55:51;;;;;;;3.38;2.22;;;19.90;67.90;;;;;;5112199;28;20035;-63
2023/10/27 00:58:17;;;;;;;2.80;1.77;;;19.90;67.90;;;;;;5111862;28;20394;-63
2023/10/27 01:00:42;;;;;;;3.40;1.83;;;19.90;67.90;;;;;;5094311;28;20407;-63
2023/10/27 01:03:08;;;;;;;3.05;1.92;;;19.90;67.90;;;;;;5112208;28;20043;-63
2023/10/27 01:05:33;;;;;;;3.15;2.10;;;19.90;67.90;;;;;;5113122;28;20082;-63
2023/10/27 01:08:02;;;;;;;2.83;2.00;;;19.80;67.90;;;;;;5112428;28;20039;-63
2023/10/27 01:10:28;;;;;;;2.80;2.00;;;19.80;67.80;;;;;;5111836;28;20089;-63
2023/10/27 01:12:53;;;;;;;2.13;1.67;;;19.80;67.80;;;;;;5112095;28;20043;-63
2023/10/27 01:15:19;;;;;;;2.28;1.95;;;19.80;67.80;;;;;;5111396;28;20048;-64
2023/10/27 01:17:45;;;;;;;3.33;2.00;;;19.80;67.80;;;;;;5113340;28;20044;-63
2023/10/27 01:20:11;;;;;;;3.00;1.83;;;19.80;67.80;;;;;;5112194;28;20035;-64
2023/10/27 01:22:55;;;;;;;4.03;2.30;;;19.80;67.80;;;;;;5112129;28;20479;-63
2023/10/27 01:25:20;;;;;;;3.05;1.83;;;19.80;67.70;;;;;;5112727;28;20039;-63
2023/10/27 01:27:46;;;;;;;2.88;1.80;;;19.80;67.80;;;;;;5112518;28;20032;-63
2023/10/27 01:30:12;;;;;;;3.55;1.85;;;19.80;67.80;;;;;;5112939;28;20040;-63
2023/10/27 01:32:40;;;;;;;2.55;1.80;;;19.80;67.80;;;;;;5113045;28;20042;-64
2023/10/27 01:35:07;;;;;;;2.50;1.80;;;19.80;67.80;;;;;;5099685;28;20098;-63
2023/10/27 01:37:33;;;;;;;2.85;1.88;;;19.80;67.80;;;;;;5092199;28;20400;-63
2023/10/27 01:39:58;;;;;;;3.08;1.70;;;19.80;67.70;;;;;;5110940;28;20044;-63
2023/10/27 01:42:24;;;;;;;3.05;2.10;;;19.80;67.80;;;;;;5110690;28;20044;-63
2023/10/27 01:44:50;;;;;;;2.38;1.58;;;19.80;67.70;;;;;;5094427;28;20047;-63
2023/10/27 01:47:15;;;;;;;2.83;2.00;;;19.80;67.70;;;;;;5112683;28;20126;-63
2023/10/27 01:49:41;;;;;;;2.47;1.95;;;19.80;67.70;;;;;;5112292;28;20196;-64
2023/10/27 01:52:06;;;;;;;2.90;2.17;;;19.70;67.70;;;;;;5112942;28;20043;-63
2023/10/27 01:54:32;;;;;;;3.08;1.83;;;19.70;67.60;;;;;;5109391;28;20036;-63
2023/10/27 01:56:57;;;;;;;3.05;1.92;;;19.70;67.60;;;;;;5091611;28;20429;-63
2023/10/27 01:59:23;;;;;;;2.83;1.70;;;19.70;67.60;;;;;;5090654;28;20047;-63
2023/10/27 02:01:48;;;;;;;3.65;2.10;;;19.70;67.60;;;;;;5105086;28;20044;-63
2023/10/27 02:04:14;;;;;;;2.83;2.00;;;19.70;67.70;;;;;;5111788;28;20127;-64
2023/10/27 02:06:39;;;;;;;2.33;1.70;;;19.70;67.60;;;;;;5110960;28;20067;-63
2023/10/27 02:09:05;;;;;;;2.60;1.77;;;19.70;67.60;;;;;;5112451;28;20076;-64
2023/10/27 02:11:31;;;;;;;3.15;1.75;;;19.70;67.60;;;;;;5111523;28;20405;-63
2023/10/27 02:13:56;;;;;;;3.25;1.92;;;19.70;67.60;;;;;;5111609;28;20040;-63
2023/10/27 02:16:22;;;;;;;2.22;1.65;;;19.70;67.60;;;;;;5110434;28;20058;-63
2023/10/27 02:18:47;;;;;;;2.72;1.70;;;19.70;67.50;;;;;;5112285;28;20042;-63
2023/10/27 02:21:13;;;;;;;1.88;1.50;;;19.70;67.60;;;;;;5112379;28;20047;-63
2023/10/27 02:23:38;;;;;;;2.70;1.85;;;19.70;67.60;;;;;;5113013;28;20046;-63
2023/10/27 02:26:04;;;;;;;2.50;1.67;;;19.70;67.60;;;;;;5104247;28;20067;-63
2023/10/27 02:28:29;;;;;;;2.60;1.70;;;19.70;67.60;;;;;;5094026;28;20483;-63
2023/10/27 02:30:55;;;;;;;2.88;1.60;;;19.70;67.60;;;;;;5093577;28;20113;-63
2023/10/27 02:33:20;;;;;;;3.58;1.92;;;19.60;67.60;;;;;;5095648;28;20131;-63
2023/10/27 02:35:46;;;;;;;4.22;2.15;;;19.70;67.60;;;;;;5095659;28;20047;-63
2023/10/27 02:38:12;;;;;;;4.03;1.83;;;19.60;67.50;;;;;;5094701;28;20047;-63
2023/10/27 02:40:38;;;;;;;2.75;1.50;;;19.60;67.50;;;;;;5094292;28;20403;-63
2023/10/27 02:43:03;;;;;;;2.80;1.90;;;19.60;67.50;;;;;;5095637;28;20126;-63
2023/10/27 02:45:29;;;;;;;2.30;1.73;;;19.60;67.50;;;;;;5094199;28;20052;-63
2023/10/27 02:47:55;;;;;;;2.28;1.80;;;19.60;67.50;;;;;;5094289;28;20036;-63
2023/10/27 02:50:21;;;;;;;2.95;1.83;;;19.60;67.50;;;;;;5095251;28;20075;-64
2023/10/27 02:52:46;;;;;;;2.60;1.60;;;19.60;67.50;;;;;;5094731;28;20036;-63
2023/10/27 02:55:12;;;;;;;2.83;1.90;;;19.60;67.50;;;;;;5094804;28;20059;-63
2023/10/27 02:57:37;;;;;;;2.85;1.92;;;19.70;67.50;;;;;;5095239;28;20036;-63
2023/10/27 03:00:06;;;;;;;2.22;1.60;;;19.60;67.50;;;;;;5093012;28;20559;-62
2023/10/27 03:02:32;;;;;;;2.15;1.48;;;19.60;67.50;;;;;;5094866;28;20115;-63
2023/10/27 03:04:58;;;;;;;3.35;2.00;;;19.60;67.50;;;;;;5095368;28;20483;-63
2023/10/27 03:07:24;;;;;;;2.05;1.75;;;19.60;67.60;;;;;;5094147;28;20495;-63
2023/10/27 03:09:50;;;;;;;2.50;1.60;;;19.60;67.60;;;;;;5095309;28;20079;-63
2023/10/27 03:12:16;;;;;;;3.33;1.85;;;19.60;67.60;;;;;;5094794;28;20043;-63
2023/10/27 03:14:42;;;;;;;2.05;1.60;;;19.70;67.60;;;;;;5094338;28;20400;-63
2023/10/27 03:17:07;;;;;;;2.55;1.70;;;19.60;67.60;;;;;;5094544;28;20052;-64
2023/10/27 03:19:33;;;;;;;2.25;1.38;;;19.60;67.60;;;;;;5094733;28;20055;-63
2023/10/27 03:22:01;;;;;;;4.03;1.90;;;19.70;68.30;;;;;;5094015;28;20032;-63
2023/10/27 03:24:26;;;;;;;2.95;1.70;;;19.70;67.60;;;;;;5094593;28;20467;-63
2023/10/27 03:26:52;;;;;;;2.42;1.77;;;19.60;67.60;;;;;;5093984;28;20093;-64
2023/10/27 03:29:18;;;;;;;3.38;1.60;;;19.70;67.60;;;;;;5094616;28;20032;-63
2023/10/27 03:31:43;;;;;;;3.22;1.40;;;19.60;67.60;;;;;;5094485;28;20044;-63
2023/10/27 03:34:09;;;;;;;2.50;1.67;;;19.70;67.60;;;;;;5092262;28;20505;-63
2023/10/27 03:36:34;;;;;;;2.05;1.30;;;19.70;67.60;;;;;;5093011;28;20044;-64
2023/10/27 03:39:00;;;;;;;2.38;1.70;;;19.70;67.60;;;;;;5094161;28;20087;-64
2023/10/27 03:41:25;;;;;;;2.45;1.58;;;19.70;67.60;;;;;;5091907;28;20047;-64
2023/10/27 03:43:52;;;;;;;3.03;1.63;;;19.70;67.60;;;;;;5093091;28;20399;-63
2023/10/27 03:46:17;;;;;;;1.90;1.42;;;19.70;67.50;;;;;;5093346;28;20076;-64
2023/10/27 03:48:44;;;;;;;2.63;1.42;;;19.70;67.60;;;;;;5093786;28;20047;-63
2023/10/27 03:51:09;;;;;;;2.22;1.60;;;19.70;67.50;;;;;;5094150;28;20468;-63
2023/10/27 03:53:35;;;;;;;2.25;1.50;;;19.80;67.60;;;;;;5094271;28;20522;-63
2023/10/27 03:56:00;;;;;;;1.90;1.40;;;19.70;67.50;;;;;;5091786;28;20040;-63
2023/10/27 03:58:26;;;;;;;2.38;1.70;;;19.80;67.60;;;;;;5092489;28;20039;-63
2023/10/27 04:00:52;;;;;;;2.70;1.55;;;19.80;67.60;;;;;;5096171;28;20035;-63
2023/10/27 04:03:18;;;;;;;2.97;1.48;;;19.80;67.60;;;;;;5122030;27;20047;-64
2023/10/27 04:05:43;;;;;;;2.60;1.75;;;19.80;67.60;;;;;;5114254;28;20471;-63
2023/10/27 04:08:09;;;;;;;2.15;1.50;;;19.80;67.60;;;;;;5112886;28;20391;-64
2023/10/27 04:10:35;;;;;;;2.25;1.63;;;19.80;67.60;;;;;;5113166;28;20187;-63
2023/10/27 04:13:00;;;;;;;2.67;1.65;;;19.80;67.60;;;;;;5114076;28;20136;-63
2023/10/27 04:15:27;;;;;;;2.28;1.60;;;19.80;67.60;;;;;;5113489;28;20521;-63
2023/10/27 04:17:53;;;;;;;2.28;1.50;;;19.80;67.60;;;;;;5113559;28;20088;-63
2023/10/27 04:20:18;;;;;;;1.95;1.40;;;19.80;67.60;;;;;;5114020;28;20043;-63
2023/10/27 04:22:44;;;;;;;1.85;1.40;;;19.80;67.60;;;;;;5114266;28;20051;-63
2023/10/27 04:25:12;;;;;;;2.28;1.50;;;19.80;67.60;;;;;;5113190;28;20036;-64
2023/10/27 04:27:38;;;;;;;;;;;19.80;67.60;;;;;;5114427;28;20083;-63
2023/10/27 04:30:07;;;;;;;2.00;1.55;;;19.80;67.60;;;;;;5111957;28;19954;-62
2023/10/27 04:32:33;;;;;;;1.73;1.30;;;19.80;67.60;;;;;;5113536;28;20042;-63
2023/10/27 04:34:59;;;;;;;2.35;1.40;;;19.80;67.60;;;;;;5113975;28;20044;-63
2023/10/27 04:37:25;;;;;;;2.30;1.45;;;19.80;67.60;;;;;;5112867;28;20043;-63
2023/10/27 04:39:54;;;;;;;1.80;1.20;;;19.80;67.50;;;;;;5113485;28;20055;-63
2023/10/27 04:42:20;;;;;;;2.08;1.27;;;19.80;67.60;;;;;;5113410;28;20423;-63
2023/10/27 04:44:46;;;;;;;1.88;1.50;;;19.80;67.60;;;;;;5112902;28;20082;-63
2023/10/27 04:47:11;;;;;;;1.75;1.30;;;19.80;67.50;;;;;;5113036;28;20040;-63
2023/10/27 04:49:37;;;;;;;2.33;1.70;;;19.80;67.60;;;;;;5113722;28;20047;-63
2023/10/27 04:52:02;;;;;;;2.22;1.30;;;19.80;67.60;;;;;;5111324;28;20043;-63
2023/10/27 04:54:28;;;;;;;2.45;1.42;;;19.80;67.60;;;;;;5111858;28;20377;-63
2023/10/27 04:56:53;;;;;;;1.75;1.23;;;19.80;67.60;;;;;;5113600;28;20069;-63
2023/10/27 04:59:19;;;;;;;2.50;1.40;;;19.80;68.20;;;;;;5112476;28;20068;-63
2023/10/27 05:01:45;;;;;;;2.10;1.33;;;19.80;67.60;;;;;;5113270;28;20553;-63
2023/10/27 05:04:10;;;;;;;1.70;1.27;;;19.80;67.60;;;;;;5112955;28;20146;-63
2023/10/27 05:06:36;;;;;;;2.20;1.48;;;19.80;67.60;;;;;;5112697;28;20047;-63
2023/10/27 05:09:02;;;;;;;1.83;1.40;;;19.80;67.60;;;;;;5111915;28;20043;-63
2023/10/27 05:11:27;;;;;;;2.17;1.35;;;19.80;67.60;;;;;;5112584;28;20075;-63
2023/10/27 05:13:53;;;;;;;2.50;1.63;;;19.80;67.60;;;;;;5112720;28;20166;-63
2023/10/27 05:16:18;;;;;;;1.73;1.30;;;19.80;67.60;;;;;;5112560;28;20138;-63
2023/10/27 05:18:44;;;;;;;2.30;1.50;;;19.80;67.50;;;;;;5113280;28;20043;-62
2023/10/27 05:21:17;;;;;;;2.63;1.60;;;19.80;67.60;;;;;;5112147;28;20082;-63
2023/10/27 05:23:43;;;;;;;2.20;1.65;;;19.80;67.50;;;;;;5113327;28;20074;-63
2023/10/27 05:26:08;;;;;;;2.00;1.40;;;19.80;67.50;;;;;;5112061;28;20418;-63
2023/10/27 05:28:34;;;;;;;2.50;1.60;;;19.80;67.50;;;;;;5111329;28;20401;-63
2023/10/27 05:30:59;;;;;;;2.35;1.58;;;19.80;67.50;;;;;;5111609;28;20447;-63
2023/10/27 05:33:25;;;;;;;2.58;1.13;;;19.80;67.50;;;;;;5111897;28;20043;-63
2023/10/27 05:35:50;;;;;;;1.77;1.40;;;19.80;67.60;;;;;;5101060;28;20047;-63
2023/10/27 05:38:16;;;;;;;2.28;1.58;;;19.80;67.50;;;;;;5092249;28;20044;-63
2023/10/27 05:40:41;;;;;;;3.05;1.63;;;19.80;67.60;;;;;;5099524;28;20048;-63
2023/10/27 05:43:07;;;;;;;2.00;1.45;;;19.80;67.50;;;;;;5112911;28;20053;-63
2023/10/27 05:45:33;;;;;;;2.58;1.70;;;19.80;67.50;;;;;;5111616;28;20091;-63
2023/10/27 05:47:58;;;;;;;1.83;1.30;;;19.80;67.50;;;;;;5112047;28;20199;-63
2023/10/27 05:50:24;;;;;;;2.50;1.45;;;19.80;68.10;;;;;;5111510;28;20040;-63
2023/10/27 05:52:49;;;;;;;2.08;1.45;;;19.80;67.50;;;;;;5111768;28;20045;-63
2023/10/27 05:55:15;;;;;;;2.72;1.30;;;19.80;67.50;;;;;;5111795;28;20048;-63
2023/10/27 05:57:41;;;;;;;2.40;1.52;;;19.90;67.50;;;;;;5112959;28;20048;-63
2023/10/27 06:00:09;;;;;;;1.88;1.30;;;19.90;67.50;;;;;;5116441;28;20126;-62
2023/10/27 06:02:35;;;;;;;2.75;1.38;;;19.90;67.50;;;;;;5115986;28;20035;-63
2023/10/27 06:05:00;;;;;;;2.03;1.23;;;19.90;67.50;;;;;;5116834;28;20525;-63
2023/10/27 06:07:26;;;;;;;1.65;1.25;;;19.90;67.50;;;;;;5115146;28;20398;-63
2023/10/27 06:09:52;;;;;;;2.42;1.60;;;19.90;67.40;;;;;;5114871;28;20387;-63
2023/10/27 06:12:17;;;;;;;1.77;1.27;;;19.90;67.50;;;;;;5116273;28;20043;-63
2023/10/27 06:14:46;;;;;;;2.40;1.50;;;19.90;67.40;;;;;;5116610;28;20036;-63
2023/10/27 06:17:12;;;;;;;;;;;19.90;67.30;;;;;;5114346;28;20192;-63
2023/10/27 06:19:37;;;;;;;2.03;1.48;;;19.90;67.40;;;;;;5098724;28;19924;-62
2023/10/27 06:22:04;;;;;;;2.38;1.65;;;19.90;67.30;;;;;;5094431;28;20047;-63
2023/10/27 06:24:29;;;;;;;3.35;1.60;;;19.90;67.30;;;;;;5094936;28;20055;-61
2023/10/27 06:26:55;;;;;;;2.85;1.98;;;19.90;67.30;;;;;;5095787;28;20043;-61
2023/10/27 06:29:21;;;;;;;5.65;2.10;;;19.90;67.20;;;;;;5095696;28;20044;-61
2023/10/27 06:31:47;;;;;;;4.03;1.90;;;19.90;67.10;;;;;;5094910;28;20040;-61
2023/10/27 06:34:12;;;;;;;4.25;2.10;;;20.00;67.80;;;;;;5095651;28;20082;-62
2023/10/27 06:36:38;;;;;;;3.45;1.75;;;20.00;67.20;;;;;;5094949;28;20495;-63
2023/10/27 06:39:03;;;;;;;4.05;2.40;;;20.00;67.40;;;;;;5095453;28;20480;-62
2023/10/27 06:41:29;;;;;;;4.80;1.95;;;20.00;67.60;;;;;;5095160;28;20478;-62
2023/10/27 06:43:55;;;;;;;3.83;2.05;;;20.00;67.70;;;;;;5094802;28;20132;-62
2023/10/27 06:46:20;;;;;;;3.45;1.80;;;20.00;67.60;;;;;;5095118;28;20392;-62
2023/10/27 06:48:46;;;;;;;3.08;1.80;;;20.00;67.70;;;;;;5095507;28;20073;-62
2023/10/27 06:51:11;;;;;;;3.60;1.77;;;20.00;67.70;;;;;;5105132;28;20076;-62
2023/10/27 06:53:37;;;;;;;4.35;2.00;;;20.00;67.70;;;;;;5114087;28;20126;-61
2023/10/27 06:56:04;;;;;;;3.65;1.77;;;20.10;67.90;;;;;;5115189;28;20032;-61
2023/10/27 06:58:29;;;;;;;3.58;1.90;;;20.10;67.90;;;;;;5114633;28;20051;-63
2023/10/27 07:00:56;;;;;;;5.53;1.60;;;20.10;68.00;;;;;;5114140;28;20032;-62
2023/10/27 07:03:22;;;;;;;4.40;1.85;;;20.10;68.00;;;;;;5115381;28;20071;-60
2023/10/27 07:05:47;;;;;;;3.70;1.90;;;20.10;68.00;;;;;;5114616;28;20406;-62
2023/10/27 07:08:14;;;;;;;4.13;1.98;;;20.10;68.10;;;;;;5113880;28;20046;-63
2023/10/27 07:10:43;;;;;;;3.83;2.08;;;20.10;68.80;;;;;;5112680;28;20048;-60
2023/10/27 07:13:08;;;;;;;;;;;20.10;68.10;;;;;;5112577;28;20036;-62
2023/10/27 07:15:34;;;;;;;7.35;2.08;;;20.10;68.20;;;;;;5113828;28;19927;-60
2023/10/27 07:17:59;;;;;;;4.07;2.30;;;20.20;68.10;;;;;;5114820;27;20462;-60
2023/10/27 07:20:26;;;;;;;4.82;2.20;;;20.10;68.10;;;;;;5112449;28;20506;-62
2023/10/27 07:22:51;;;;;;;5.25;2.28;;;20.20;68.10;;;;;;5114897;27;20043;-63
2023/10/27 07:25:17;;;;;;;4.13;2.40;;;20.20;68.00;;;;;;5130703;27;20122;-61
2023/10/27 07:27:43;;;;;;;4.65;2.03;;;20.20;67.90;;;;;;5117698;27;20531;-62
2023/10/27 07:30:09;;;;;;;4.03;2.13;;;20.20;68.00;;;;;;5114666;28;20040;-61
2023/10/27 07:32:34;;;;;;;4.40;2.10;;;20.20;68.00;;;;;;5114843;27;20050;-62
2023/10/27 07:35:00;;;;;;;5.80;2.33;;;20.20;68.10;;;;;;5112417;28;20031;-63
2023/10/27 07:37:25;;;;;;;3.33;2.10;;;20.20;68.10;;;;;;5114227;28;20040;-63
2023/10/27 07:39:51;;;;;;;4.10;2.25;;;20.20;68.20;;;;;;5113562;28;20043;-61
2023/10/27 07:42:16;;;;;;;3.97;2.60;;;20.20;68.10;;;;;;5111431;27;20449;-60
2023/10/27 07:44:42;;;;;;;4.50;2.30;;;20.20;68.10;;;;;;5097085;28;20109;-60
2023/10/27 07:47:08;;;;;;;5.40;2.47;;;20.20;68.10;;;;;;5104208;27;20044;-60
2023/10/27 07:49:33;;;;;;;4.10;2.35;;;20.20;68.10;;;;;;5113894;28;20118;-61
2023/10/27 07:51:59;;;;;;;3.75;2.05;;;20.20;68.10;;;;;;5095901;27;20045;-61
2023/10/27 07:54:24;;;;;;;5.55;2.10;;;20.20;68.10;;;;;;5111476;27;20489;-61
2023/10/27 07:56:50;;;;;;;4.43;2.08;;;20.20;68.10;;;;;;5113061;27;20455;-61
2023/10/27 07:59:16;;;;;;;5.00;2.20;;;20.20;68.10;;;;;;5104682;28;20087;-61
2023/10/27 08:01:41;;;;;;;3.40;2.22;;;20.20;68.10;;;;;;5103419;28;20039;-61
2023/10/27 08:04:07;;;;;;;3.30;2.00;;;20.20;68.10;;;;;;5104157;28;20044;-62
2023/10/27 08:06:32;;;;;;;3.22;2.13;;;20.20;68.10;;;;;;5110117;28;20039;-62
2023/10/27 08:08:59;;;;;;;5.70;2.60;;;20.20;68.10;;;;;;5094667;28;20464;-60
2023/10/27 08:11:24;;;;;;;3.10;1.83;;;20.20;68.00;;;;;;5107733;27;20063;-61
2023/10/27 08:13:50;;;;;;;3.60;2.00;;;20.20;68.10;;;;;;5112105;28;20078;-61
2023/10/27 08:16:15;;;;;;;4.18;2.20;;;20.20;68.00;;;;;;5110923;28;20419;-62
2023/10/27 08:18:41;;;;;;;3.88;2.42;;;20.20;68.00;;;;;;5114137;28;20055;-62
2023/10/27 08:21:07;;;;;;;4.35;2.53;;;20.20;67.90;;;;;;5112347;28;20044;-63
2023/10/27 08:23:32;;;;;;;5.60;2.15;;;20.20;67.80;;;;;;5111499;28;20049;-61
2023/10/27 08:25:58;;;;;;;3.35;2.03;;;20.20;67.80;;;;;;5112493;28;20031;-61
2023/10/27 08:28:24;;;;;;;4.63;2.40;;;20.20;68.10;;;;;;5113430;28;20077;-61
2023/10/27 08:30:49;;;;;;;4.55;2.20;;;20.20;68.00;;;;;;5113157;28;20035;-61
2023/10/27 08:33:15;;;;;;;3.95;2.10;;;20.20;68.00;;;;;;5129487;27;20182;-61
2023/10/27 08:35:41;;;;;;;6.13;2.72;;;20.20;68.10;;;;;;5120548;27;20086;-61
2023/10/27 08:38:06;;;;;;;3.47;2.17;;;20.20;68.10;;;;;;5111567;27;20048;-62
2023/10/27 08:40:32;;;;;;;3.65;2.30;;;20.20;68.10;;;;;;5112002;28;20167;-60
2023/10/27 08:42:57;;;;;;;4.10;2.25;;;20.20;68.10;;;;;;5092222;28;20115;-61
2023/10/27 08:45:23;;;;;;;3.45;2.25;;;20.20;68.00;;;;;;5090657;28;20040;-61
2023/10/27 08:47:49;;;;;;;4.03;2.33;;;20.20;68.10;;;;;;5104894;28;20084;-61
2023/10/27 08:50:16;;;;;;;3.25;2.20;;;20.20;68.10;;;;;;5111705;28;20137;-62
2023/10/27 08:52:42;;;;;;;5.35;2.25;;;20.20;68.20;;;;;;5112068;28;20051;-63
2023/10/27 08:55:09;;;;;;;3.92;1.92;;;20.20;68.10;;;;;;5111635;28;20043;-66
2023/10/27 08:57:35;;;;;;;3.15;1.92;;;20.20;68.10;;;;;;5111120;27;20051;-61
2023/10/27 09:00:00;;;;;;;3.80;2.20;;;20.20;68.00;;;;;;5113085;28;20184;-61
2023/10/27 09:02:30;;;;;;;4.90;2.75;;;20.20;68.00;;;;;;5112640;28;20085;-62
2023/10/27 09:05:03;;;;;;;4.95;2.55;;;20.20;68.00;;;;;;5111240;28;20047;-61
2023/10/27 09:07:30;;;;;;;8.07;2.30;;;20.20;68.00;;;;;;5112959;28;20090;-61
2023/10/27 09:09:57;;;;;;;5.55;2.45;;;20.20;68.10;;;;;;5112338;28;20039;-60
2023/10/27 09:12:23;;;;;;;5.85;2.30;;;20.20;68.20;;;;;;5100859;28;20054;-59
2023/10/27 09:15:04;;;;;;;3.53;2.40;;;20.20;68.20;;;;;;5092569;28;20043;-60
2023/10/27 09:17:30;;;;;;;5.43;2.53;;;20.20;68.30;;;;;;5101699;27;20054;-59
2023/10/27 09:20:06;;;;;;;7.35;2.55;;;20.20;68.30;;;;;;5125638;27;20034;-60
2023/10/27 09:22:31;;;;;;;4.75;2.45;;;20.10;68.20;;;;;;5112656;28;20043;-60
2023/10/27 09:25:28;;;;;;;4.82;2.80;;;20.10;68.00;;;;;;5111577;28;20043;-61
2023/10/27 09:27:54;;;;;;;7.45;2.78;;;20.10;67.70;;;;;;5111699;28;20047;-61
2023/10/27 09:30:38;;;;;;;3.45;2.17;;;20.10;67.90;;;;;;5112726;28;20514;-61
2023/10/27 09:33:22;;;;;;;4.88;2.65;;;20.10;67.90;;;;;;5114057;28;20043;-61
2023/10/27 09:35:49;;;;;;;5.47;2.30;;;20.10;68.00;;;;;;5110075;28;20027;-61
2023/10/27 09:38:15;;;;;;;9.18;2.53;;;20.10;68.00;;;;;;5114662;27;20098;-60
2023/10/27 09:40:42;;;;;;;3.70;2.30;;;20.10;68.10;;;;;;5115943;28;20059;-60
2023/10/27 09:43:08;;;;;;;7.00;2.80;;;20.10;68.20;;;;;;5116524;28;20071;-60
2023/10/27 09:45:35;;;;;;;8.05;3.60;;;20.10;68.00;;;;;;5113495;28;20040;-61
2023/10/27 09:48:04;;;;;;;6.72;3.60;;;20.00;67.70;;;;;;5114117;28;20071;-60
2023/10/27 09:50:31;;;;;;;5.47;3.00;;;20.00;67.50;;;;;;5114876;28;20052;-61
2023/10/27 09:53:01;;;;;;;5.22;3.08;;;20.00;67.60;;;;;;5116521;28;20054;-61
2023/10/27 09:55:27;;;;;;;7.93;3.05;;;20.00;67.70;;;;;;5114093;28;20048;-61
2023/10/27 09:57:53;;;;;;;7.50;3.10;;;20.00;67.70;;;;;;5116145;27;20499;-64
2023/10/27 10:00:24;;;;;;;5.63;3.13;;;20.00;67.60;;;;;;5114525;28;20043;-62
2023/10/27 10:02:50;;;;;;;6.50;2.75;;;20.00;67.70;;;;;;5096925;27;20040;-62
2023/10/27 10:05:16;;;;;;;7.75;2.70;;;20.00;67.70;;;;;;5097775;28;20047;-64
2023/10/27 10:07:44;;;;;;;4.47;2.58;;;20.00;67.80;;;;;;5115152;28;20055;-62
2023/10/27 10:10:15;;;;;;;;;;;20.00;67.80;;;;;;5114617;28;20043;-63
2023/10/27 10:13:19;;;;;;;12.18;2.80;;;20.00;68.50;;;;;;5116239;28;20428;-61
2023/10/27 10:15:45;;;;;;;8.63;3.28;;;20.00;67.90;;;;;;5114336;28;20060;-61
2023/10/27 10:18:20;;;;;;;6.45;3.90;;;20.00;67.90;;;;;;5115995;28;20086;-61
2023/10/27 10:20:53;;;;;;;13.40;3.25;;;20.00;67.90;;;;;;5115256;28;20055;-61
2023/10/27 10:23:19;;;;;;;8.52;2.92;;;20.00;68.00;;;;;;5119035;27;20474;-61
2023/10/27 10:25:54;;;;;;;7.72;3.20;;;20.00;68.00;;;;;;5136624;27;20042;-61
2023/10/27 10:28:23;;;;;;;10.65;3.17;;;20.00;68.00;;;;;;5134778;27;20055;-61
2023/10/27 10:31:10;;;;;;;5.85;2.97;;;20.00;68.00;;;;;;5135704;27;20421;-61
2023/10/27 10:33:38;;;;;;;8.40;3.40;;;20.00;68.10;;;;;;5136311;27;20117;-61
2023/10/27 10:36:22;;;;;;;7.45;2.78;;;20.00;68.10;;;;;;5125923;27;20207;-60
2023/10/27 10:38:53;;;;;;;7.05;3.00;;;20.00;68.10;;;;;;5116110;27;20058;-61
2023/10/27 10:41:19;;;;;;;6.22;2.75;;;20.00;68.10;;;;;;5115228;28;20048;-60
2023/10/27 10:43:44;;;;;;;6.55;3.33;;;20.00;68.10;;;;;;5113964;27;20035;-60
2023/10/27 10:46:11;;;;;;;5.00;2.80;;;20.00;68.00;;;;;;5114626;28;20048;-59
2023/10/27 10:48:41;;;;;;;8.20;2.65;;;20.00;68.10;;;;;;5118258;27;20031;-60
2023/10/27 10:51:15;;;;;;;5.15;2.80;;;20.00;68.20;;;;;;5114652;28;20073;-60
2023/10/27 10:53:41;;;;;;;5.47;2.80;;;20.00;68.30;;;;;;5112379;28;20529;-60
2023/10/27 10:56:07;;;;;;;7.50;3.33;;;20.00;68.30;;;;;;5113556;28;20054;-60
2023/10/27 10:58:35;;;;;;;6.20;3.00;;;20.00;68.40;;;;;;5114040;27;20036;-59
2023/10/27 11:01:00;;;;;;;5.10;3.00;;;20.00;68.40;;;;;;5114968;28;20479;-59
2023/10/27 11:03:34;;;;;;;9.20;3.17;;;20.00;68.50;;;;;;5113820;28;20047;-59
2023/10/27 11:06:02;;;;;;;6.60;2.67;;;20.00;68.60;;;;;;5110400;28;20043;-60
2023/10/27 11:08:29;;;;;;;8.35;3.35;;;20.00;68.60;;;;;;5114598;27;20040;-60
2023/10/27 11:11:02;;;;;;;6.32;2.75;;;20.00;68.60;;;;;;5114429;27;20036;-59
2023/10/27 11:13:28;;;;;;;5.60;2.20;;;20.00;68.60;;;;;;5114808;27;20047;-60
2023/10/27 11:15:53;;;;;;;6.10;2.10;;;20.00;68.70;;;;;;5113246;28;20100;-60
2023/10/27 11:18:19;;;;;;;8.13;2.85;;;20.00;68.70;;;;;;5112433;27;20517;-61
2023/10/27 11:20:45;;;;;;;6.05;2.83;;;20.00;68.80;;;;;;5113807;28;20064;-60
2023/10/27 11:23:15;;;;;;;4.57;2.58;;;20.00;68.80;;;;;;5114852;27;20047;-61
2023/10/27 11:25:41;;;;;;;5.15;2.30;;;20.00;68.80;;;;;;5114408;28;20104;-61
2023/10/27 11:28:26;;;;;;;7.20;2.60;;;20.00;68.80;;;;;;5114868;28;20478;-60
2023/10/27 11:31:13;;;;;;;5.65;2.88;;;20.10;68.80;;;;;;5115150;28;20044;-60
2023/10/27 11:33:57;;;;;;;4.13;2.35;;;20.10;68.80;;;;;;5114484;28;20036;-61
2023/10/27 11:36:26;;;;;;;6.95;3.08;;;20.10;68.90;;;;;;5112160;28;20043;-60
2023/10/27 11:38:51;;;;;;;6.90;2.40;;;20.10;68.80;;;;;;5115026;27;20108;-60
2023/10/27 11:41:17;;;;;;;6.45;2.63;;;20.10;68.90;;;;;;5105980;28;20429;-60
2023/10/27 11:43:43;;;;;;;4.05;2.58;;;20.10;68.90;;;;;;5112643;28;20043;-60
2023/10/27 11:46:13;;;;;;;3.97;2.55;;;20.10;68.90;;;;;;5111852;28;20115;-61
2023/10/27 11:48:38;;;;;;;4.80;2.60;;;20.20;69.00;;;;;;5111642;27;20043;-60
2023/10/27 11:51:05;;;;;;;3.78;2.55;;;20.20;69.00;;;;;;5114048;27;20462;-60
2023/10/27 11:53:30;;;;;;;5.55;2.65;;;20.20;69.00;;;;;;5111851;27;20089;-60
2023/10/27 11:55:56;;;;;;;8.02;2.72;;;20.20;69.00;;;;;;5111535;28;20032;-60
2023/10/27 11:58:22;;;;;;;4.95;2.47;;;20.20;69.00;;;;;;5113592;27;20051;-60
2023/10/27 12:00:47;;;;;;;5.40;2.85;;;20.30;69.70;;;;;;5113516;28;20035;-61
2023/10/27 12:03:13;;;;;;;4.90;2.75;;;20.30;69.10;;;;;;5111939;28;20107;-61
2023/10/27 12:05:38;;;;;;;4.88;2.40;;;20.30;69.10;;;;;;5113754;28;20071;-60
2023/10/27 12:08:04;;;;;;;6.78;2.88;;;20.30;69.10;;;;;;5111667;28;20039;-61
2023/10/27 12:10:32;;;;;;;7.53;2.95;;;20.30;69.20;;;;;;5113621;28;20059;-60
2023/10/27 12:12:58;;;;;;;8.82;3.17;;;20.40;69.40;;;;;;5111044;28;20047;-60
2023/10/27 12:15:23;;;;;;;5.32;2.58;;;20.40;69.50;;;;;;5112607;27;20103;-61
2023/10/27 12:17:49;;;;;;;4.47;2.30;;;20.40;69.60;;;;;;5113564;28;20043;-61
2023/10/27 12:20:17;;;;;;;8.52;2.70;;;20.40;69.70;;;;;;5111556;27;20059;-61
2023/10/27 12:22:45;;;;;;;6.50;2.70;;;20.40;69.70;;;;;;5094793;28;20403;-61
2023/10/27 12:25:12;;;;;;;7.50;2.63;;;20.40;69.80;;;;;;5111586;28;20301;-62
2023/10/27 12:27:37;;;;;;;6.22;2.78;;;20.40;69.90;;;;;;5110849;28;20031;-61
2023/10/27 12:30:03;;;;;;;5.60;2.70;;;20.40;69.90;;;;;;5111332;28;20054;-61
2023/10/27 12:32:32;;;;;;;5.50;2.47;;;20.40;69.90;;;;;;5113160;28;20778;-63
2023/10/27 12:34:59;;;;;;;6.90;2.92;;;20.50;70.00;;;;;;5110609;28;20040;-62
2023/10/27 12:37:25;;;;;;;4.63;2.80;;;20.50;70.00;;;;;;5111001;28;20047;-62
2023/10/27 12:39:51;;;;;;;5.07;2.65;;;20.50;70.10;;;;;;5112257;28;20036;-62
2023/10/27 12:42:16;;;;;;;6.47;2.67;;;20.50;70.10;;;;;;5111363;28;20046;-62
2023/10/27 12:44:42;;;;;;;4.97;2.40;;;20.50;70.10;;;;;;5111055;28;20062;-61
2023/10/27 12:47:08;;;;;;;5.13;2.60;;;20.50;70.10;;;;;;5111763;28;20467;-61